createdAt,value
2023-02-25T00:00:31.169Z,93.60
2023-02-25T00:05:33.981Z,88.20
2023-02-25T00:10:36.651Z,94.50
2023-02-25T00:15:41.672Z,87.70
2023-02-25T00:20:44.499Z,93.10
2023-02-25T00:25:47.558Z,91.30
2023-02-25T00:30:50.018Z,93.40
2023-02-25T00:35:52.659Z,95.80
2023-02-25T00:40:55.193Z,93.60
2023-02-25T00:45:58.922Z,98.40
2023-02-25T00:51:23.629Z,95.70
2023-02-25T00:56:26.685Z,98.90
2023-02-25T01:01:33.494Z,90.30
2023-02-25T01:06:38.472Z,96.00
2023-02-25T01:11:44.141Z,92.50
2023-02-25T01:16:48.407Z,94.90
2023-02-25T01:21:53.972Z,96.50
2023-02-25T01:27:00.122Z,92.00
2023-02-25T01:32:03.759Z,97.50
2023-02-25T01:37:07.054Z,94.80
2023-02-25T01:42:16.482Z,94.90
2023-02-25T01:47:22.386Z,94.20
2023-02-25T01:52:25.866Z,93.70
2023-02-25T01:57:28.451Z,94.70
2023-02-25T02:02:34.152Z,94.10
2023-02-25T02:07:41.363Z,92.50
2023-02-25T02:12:47.384Z,91.70
2023-02-25T02:18:00.908Z,94.30
2023-02-25T02:23:34.062Z,94.50
2023-02-25T02:28:55.104Z,92.90
2023-02-25T02:34:16.688Z,91.60
2023-02-25T02:39:25.313Z,93.80
2023-02-25T02:44:38.058Z,98.60
2023-02-25T02:49:57.182Z,97.40
2023-02-25T02:55:37.843Z,95.20
2023-02-25T03:00:45.049Z,94.20
2023-02-25T03:05:51.215Z,97.10
2023-02-25T03:10:53.984Z,99.90
2023-02-25T03:16:01.934Z,97.40
2023-02-25T03:21:11.309Z,94.80
2023-02-25T03:26:30.202Z,95.20
2023-02-25T03:31:45.857Z,96.80
2023-02-25T03:36:59.837Z,92.30
2023-02-25T03:42:05.628Z,91.90
2023-02-25T03:47:10.941Z,96.00
2023-02-25T03:52:19.983Z,95.00
2023-02-25T03:57:27.475Z,96.70
2023-02-25T04:02:33.422Z,97.20
2023-02-25T04:07:36.291Z,98.30
2023-02-25T04:12:39.719Z,97.00
2023-02-25T04:17:42.762Z,99.90
2023-02-25T04:22:46.178Z,96.10
2023-02-25T04:27:48.680Z,93.90
2023-02-25T04:32:51.329Z,98.30
2023-02-25T04:37:54.005Z,96.00
2023-02-25T04:42:56.592Z,94.40
2023-02-25T04:47:59.075Z,90.40
2023-02-25T04:53:04.731Z,92.20
2023-02-25T04:58:07.257Z,92.90
2023-02-25T05:03:09.852Z,94.80
2023-02-25T05:08:12.390Z,93.50
2023-02-25T05:13:15.020Z,92.90
2023-02-25T05:18:17.640Z,90.70
2023-02-25T05:23:20.310Z,91.90
2023-02-25T05:28:22.762Z,94.00
2023-02-25T05:33:25.448Z,93.30
2023-02-25T05:38:28.267Z,92.50
2023-02-25T05:43:30.770Z,85.10
2023-02-25T05:48:33.333Z,91.40
2023-02-25T05:53:35.950Z,88.80
2023-02-25T05:58:38.482Z,86.90
2023-02-25T06:03:42.650Z,88.50
2023-02-25T06:08:45.073Z,86.60
2023-02-25T06:13:52.165Z,92.40
2023-02-25T06:18:54.931Z,91.30
2023-02-25T06:23:57.365Z,91.20
2023-02-25T06:28:59.792Z,93.30
2023-02-25T06:34:02.363Z,97.10
2023-02-25T06:39:04.860Z,92.40
2023-02-25T06:44:07.388Z,87.90
2023-02-25T06:49:09.881Z,92.00
2023-02-25T06:54:12.434Z,94.00
2023-02-25T06:59:14.976Z,91.10
2023-02-25T07:04:19.515Z,91.60
2023-02-25T07:09:22.184Z,92.10
2023-02-25T07:14:24.888Z,89.50
2023-02-25T07:19:27.417Z,88.80
2023-02-25T07:24:30.208Z,90.80
2023-02-25T07:29:32.741Z,91.30
2023-02-25T07:34:35.963Z,92.80
2023-02-25T07:39:38.901Z,92.00
2023-02-25T07:44:41.431Z,90.30
2023-02-25T07:49:43.902Z,87.80
2023-02-25T07:54:46.451Z,89.40
2023-02-25T07:59:49.042Z,93.40
2023-02-25T08:04:51.629Z,93.10
2023-02-25T08:09:54.657Z,93.30
2023-02-25T08:15:00.224Z,93.90
2023-02-25T08:20:03.349Z,95.40
2023-02-25T08:25:06.220Z,86.50
2023-02-25T08:30:09.472Z,90.20
2023-02-25T08:35:11.971Z,86.90
2023-02-25T08:40:15.237Z,91.20
2023-02-25T08:45:18.018Z,95.20
2023-02-25T08:50:20.965Z,90.20
2023-02-25T08:55:24.838Z,93.90
2023-02-25T09:00:28.928Z,91.70
2023-02-25T09:05:31.521Z,87.10
2023-02-25T09:10:48.211Z,95.40
2023-02-25T09:15:58.736Z,90.30
2023-02-25T09:21:01.352Z,89.80
2023-02-25T09:26:05.537Z,92.40
2023-02-25T09:31:08.061Z,89.40
2023-02-25T09:36:11.797Z,86.10
2023-02-25T09:41:40.633Z,88.60
2023-02-25T09:47:01.963Z,88.40
2023-02-25T09:52:18.716Z,84.90
2023-02-25T09:57:23.493Z,93.60
2023-02-25T10:02:52.234Z,99.90
2023-02-25T10:13:33.863Z,99.90
2023-02-25T10:19:17.084Z,99.90
2023-02-25T10:24:38.560Z,99.90
2023-02-25T10:29:49.715Z,99.90
2023-02-25T10:34:59.616Z,99.90
2023-02-25T10:40:05.345Z,99.90
2023-02-25T10:45:14.803Z,99.90
2023-02-25T10:50:44.488Z,99.90
2023-02-25T10:55:54.917Z,98.50
2023-02-25T11:01:06.172Z,99.90
2023-02-25T11:06:36.977Z,99.90
2023-02-25T11:11:52.429Z,99.80
2023-02-25T11:17:05.592Z,99.90
2023-02-25T11:22:28.336Z,94.00
2023-02-25T11:27:39.311Z,94.70
2023-02-25T11:32:55.050Z,99.90
2023-02-25T11:37:59.686Z,95.50
2023-02-25T11:43:05.184Z,96.30
2023-02-25T11:48:19.705Z,94.00
2023-02-25T11:53:47.144Z,92.80
2023-02-25T11:58:55.809Z,99.90
2023-02-25T12:03:59.648Z,99.90
2023-02-25T12:09:24.464Z,99.90
2023-02-25T12:14:41.930Z,99.90
2023-02-25T12:19:50.234Z,96.40
2023-02-25T12:25:13.004Z,99.90
2023-02-25T12:30:40.301Z,99.90
2023-02-25T12:36:19.568Z,99.90
2023-02-25T12:41:38.845Z,99.90
2023-02-25T12:46:47.197Z,99.90
2023-02-25T12:52:18.444Z,99.90
2023-02-25T12:57:27.653Z,99.90
2023-02-25T13:02:58.668Z,99.90
2023-02-25T13:08:28.634Z,99.90
2023-02-25T13:13:40.389Z,99.90
2023-02-25T13:24:11.313Z,99.90
2023-02-25T13:34:36.321Z,99.90
2023-02-25T13:39:50.084Z,99.90
2023-02-25T13:45:01.171Z,99.90
2023-02-25T13:50:32.954Z,99.90
2023-02-25T13:55:56.725Z,99.90
2023-02-25T14:01:26.926Z,99.90
2023-02-25T14:06:44.612Z,99.90
2023-02-25T14:12:11.553Z,99.90
2023-02-25T14:17:35.847Z,99.90
2023-02-25T14:22:46.417Z,99.90
2023-02-25T14:28:05.866Z,99.90
2023-02-25T14:33:26.300Z,99.90
2023-02-25T14:38:35.772Z,99.90
2023-02-25T14:43:38.746Z,99.90
2023-02-25T14:49:08.660Z,99.90
2023-02-25T14:54:48.785Z,99.90
2023-02-25T15:00:16.198Z,99.90
2023-02-25T15:06:05.695Z,99.90
2023-02-25T15:11:38.979Z,99.90
2023-02-25T15:17:00.036Z,99.90
2023-02-25T15:22:19.171Z,99.90
2023-02-25T15:27:36.995Z,99.90
2023-02-25T15:32:58.144Z,99.90
2023-02-25T15:38:00.658Z,99.90
2023-02-25T15:43:16.269Z,99.90
2023-02-25T15:48:21.441Z,99.90
2023-02-25T15:53:24.804Z,99.90
2023-02-25T15:58:27.284Z,99.90
2023-02-25T16:03:35.778Z,99.90
2023-02-25T16:13:43.420Z,99.90
2023-02-25T16:18:50.443Z,99.90
2023-02-25T16:23:54.530Z,99.90
2023-02-25T16:29:15.474Z,99.90
2023-02-25T16:34:27.351Z,99.90
2023-02-25T16:39:31.561Z,99.90
2023-02-25T16:44:39.103Z,99.90
2023-02-25T16:49:46.122Z,99.90
2023-02-25T16:54:56.610Z,99.90
2023-02-25T17:00:33.218Z,99.90
2023-02-25T17:05:38.046Z,99.90
2023-02-25T17:10:53.171Z,99.90
2023-02-25T17:15:56.426Z,99.90
2023-02-25T17:26:07.064Z,99.90
2023-02-25T17:31:16.383Z,99.90
2023-02-25T17:36:26.045Z,99.90
2023-02-25T17:41:29.242Z,99.90
2023-02-25T17:46:38.338Z,99.90
2023-02-25T17:51:40.916Z,99.90
2023-02-25T17:56:44.196Z,99.90
2023-02-25T18:01:56.438Z,99.90
2023-02-25T18:12:05.523Z,99.90
2023-02-25T18:17:26.855Z,99.90
2023-02-25T18:22:37.674Z,99.90
2023-02-25T18:27:40.903Z,99.90
2023-02-25T18:32:43.485Z,99.90
2023-02-25T18:37:49.498Z,99.90
2023-02-25T18:42:52.086Z,99.90
2023-02-25T18:47:56.682Z,99.90
2023-02-25T18:53:00.198Z,99.90
2023-02-25T18:58:04.945Z,99.90
2023-02-25T19:03:09.950Z,99.90
2023-02-25T19:08:15.913Z,99.90
2023-02-25T19:13:47.826Z,99.90
2023-02-25T19:18:50.540Z,99.90
2023-02-25T19:23:54.034Z,99.90
2023-02-25T19:28:56.501Z,99.90
2023-02-25T19:33:59.262Z,99.90
2023-02-25T19:39:01.834Z,99.90
2023-02-25T19:44:04.490Z,99.90
2023-02-25T19:49:06.976Z,99.90
2023-02-25T19:54:09.643Z,99.90
2023-02-25T19:59:12.371Z,99.90
2023-02-25T20:04:14.982Z,99.90
2023-02-25T20:09:19.464Z,99.90
2023-02-25T20:14:24.180Z,99.90
2023-02-25T20:19:32.822Z,99.90
2023-02-25T20:24:35.779Z,99.90
2023-02-25T20:29:38.428Z,99.90
2023-02-25T20:34:41.098Z,99.90
2023-02-25T20:39:55.446Z,99.90
2023-02-25T20:44:59.530Z,99.90
2023-02-25T20:50:02.787Z,99.90
2023-02-25T20:55:06.855Z,99.90
2023-02-25T21:00:13.050Z,99.90
2023-02-25T21:05:16.498Z,99.90
2023-02-25T21:10:19.074Z,99.90
2023-02-25T21:15:21.677Z,99.90
2023-02-25T21:20:24.165Z,99.90
2023-02-25T21:25:26.736Z,99.90
2023-02-25T21:30:29.294Z,99.90
2023-02-25T21:35:31.952Z,99.90
2023-02-25T21:40:34.445Z,99.90
2023-02-25T21:45:37.893Z,99.90
2023-02-25T21:50:45.653Z,99.90
2023-02-25T21:55:48.566Z,99.90
2023-02-25T22:00:51.102Z,99.90
2023-02-25T22:05:53.624Z,99.90
2023-02-25T22:10:56.922Z,99.90
2023-02-25T22:16:02.141Z,99.90
2023-02-25T22:21:31.946Z,99.90
2023-02-25T22:26:36.310Z,99.90
2023-02-25T22:31:38.898Z,99.90
2023-02-25T22:36:41.515Z,99.90
2023-02-25T22:41:44.008Z,99.90
2023-02-25T22:46:46.688Z,99.90
2023-02-25T22:51:50.446Z,99.90
2023-02-25T22:56:53.102Z,99.90
2023-02-25T23:01:55.706Z,99.90
2023-02-25T23:06:58.253Z,99.90
2023-02-25T23:12:00.951Z,99.90
2023-02-25T23:17:04.584Z,99.90
2023-02-25T23:22:07.188Z,99.90
2023-02-25T23:27:11.613Z,99.90
2023-02-25T23:32:14.351Z,99.90
2023-02-25T23:37:16.859Z,99.90
2023-02-25T23:42:19.339Z,99.90
2023-02-25T23:47:22.019Z,99.90
2023-02-25T23:52:24.467Z,99.90
2023-02-25T23:57:27.155Z,99.90
